sensor_id;sensor_type;location;lat;lon;timestamp;P1;durP1;ratioP1;P2;durP2;ratioP2
69434;SDS011;56625;54.322;18.582;2023-12-04T00:01:28;6.70;;;1.80;;
69434;SDS011;56625;54.322;18.582;2023-12-04T00:03:57;8.70;;;2.50;;
69434;SDS011;56625;54.322;18.582;2023-12-04T00:06:26;9.00;;;2.40;;
69434;SDS011;56625;54.322;18.582;2023-12-04T00:08:54;5.30;;;1.60;;
69434;SDS011;56625;54.322;18.582;2023-12-04T00:11:22;8.20;;;2.30;;
69434;SDS011;56625;54.322;18.582;2023-12-04T00:13:50;7.10;;;1.80;;
69434;SDS011;56625;54.322;18.582;2023-12-04T00:16:19;8.90;;;2.30;;
69434;SDS011;56625;54.322;18.582;2023-12-04T00:18:47;7.60;;;2.30;;
69434;SDS011;56625;54.322;18.582;2023-12-04T00:21:15;8.60;;;2.20;;
69434;SDS011;56625;54.322;18.582;2023-12-04T00:23:43;7.60;;;2.00;;
69434;SDS011;56625;54.322;18.582;2023-12-04T00:26:12;5.60;;;1.80;;
69434;SDS011;56625;54.322;18.582;2023-12-04T00:28:40;8.10;;;2.90;;
69434;SDS011;56625;54.322;18.582;2023-12-04T00:31:09;8.00;;;2.10;;
69434;SDS011;56625;54.322;18.582;2023-12-04T00:33:38;9.30;;;2.40;;
69434;SDS011;56625;54.322;18.582;2023-12-04T00:36:07;6.50;;;1.90;;
69434;SDS011;56625;54.322;18.582;2023-12-04T00:38:36;8.70;;;2.70;;
69434;SDS011;56625;54.322;18.582;2023-12-04T00:41:04;6.70;;;2.00;;
69434;SDS011;56625;54.322;18.582;2023-12-04T00:43:33;8.00;;;2.20;;
69434;SDS011;56625;54.322;18.582;2023-12-04T00:46:01;8.60;;;1.90;;
69434;SDS011;56625;54.322;18.582;2023-12-04T00:48:29;6.60;;;2.00;;
69434;SDS011;56625;54.322;18.582;2023-12-04T00:50:57;6.60;;;2.10;;
69434;SDS011;56625;54.322;18.582;2023-12-04T00:53:26;8.70;;;2.40;;
69434;SDS011;56625;54.322;18.582;2023-12-04T00:55:54;8.70;;;2.10;;
69434;SDS011;56625;54.322;18.582;2023-12-04T00:58:22;9.90;;;2.60;;
69434;SDS011;56625;54.322;18.582;2023-12-04T01:00:50;7.40;;;2.30;;
69434;SDS011;56625;54.322;18.582;2023-12-04T01:03:20;7.20;;;2.00;;
69434;SDS011;56625;54.322;18.582;2023-12-04T01:05:48;10.40;;;2.60;;
69434;SDS011;56625;54.322;18.582;2023-12-04T01:08:16;7.30;;;2.10;;
69434;SDS011;56625;54.322;18.582;2023-12-04T01:10:45;3.90;;;0.90;;
69434;SDS011;56625;54.322;18.582;2023-12-04T01:13:13;6.00;;;1.60;;
69434;SDS011;56625;54.322;18.582;2023-12-04T01:15:41;7.80;;;2.00;;
69434;SDS011;56625;54.322;18.582;2023-12-04T01:18:10;4.80;;;1.40;;
69434;SDS011;56625;54.322;18.582;2023-12-04T01:20:39;6.50;;;1.90;;
69434;SDS011;56625;54.322;18.582;2023-12-04T01:23:07;8.30;;;1.70;;
69434;SDS011;56625;54.322;18.582;2023-12-04T01:25:35;6.90;;;1.70;;
69434;SDS011;56625;54.322;18.582;2023-12-04T01:28:03;6.30;;;1.90;;
69434;SDS011;56625;54.322;18.582;2023-12-04T01:30:31;5.20;;;1.10;;
69434;SDS011;56625;54.322;18.582;2023-12-04T01:33:00;3.20;;;0.90;;
69434;SDS011;56625;54.322;18.582;2023-12-04T01:35:28;4.30;;;1.30;;
69434;SDS011;56625;54.322;18.582;2023-12-04T01:37:56;7.40;;;2.10;;
69434;SDS011;56625;54.322;18.582;2023-12-04T01:40:26;7.40;;;2.20;;
69434;SDS011;56625;54.322;18.582;2023-12-04T01:42:54;6.50;;;1.80;;
69434;SDS011;56625;54.322;18.582;2023-12-04T01:45:22;5.40;;;1.20;;
69434;SDS011;56625;54.322;18.582;2023-12-04T01:47:51;5.00;;;1.30;;
69434;SDS011;56625;54.322;18.582;2023-12-04T01:50:19;5.90;;;1.70;;
69434;SDS011;56625;54.322;18.582;2023-12-04T01:52:49;6.10;;;1.60;;
69434;SDS011;56625;54.322;18.582;2023-12-04T01:55:20;8.00;;;2.20;;
69434;SDS011;56625;54.322;18.582;2023-12-04T01:57:49;8.30;;;2.20;;
69434;SDS011;56625;54.322;18.582;2023-12-04T02:00:18;6.30;;;1.60;;
69434;SDS011;56625;54.322;18.582;2023-12-04T02:02:48;7.30;;;2.40;;
69434;SDS011;56625;54.322;18.582;2023-12-04T02:05:16;4.90;;;1.20;;
69434;SDS011;56625;54.322;18.582;2023-12-04T02:07:47;8.60;;;2.20;;
69434;SDS011;56625;54.322;18.582;2023-12-04T02:10:16;9.20;;;2.40;;
69434;SDS011;56625;54.322;18.582;2023-12-04T02:12:44;10.10;;;2.40;;
69434;SDS011;56625;54.322;18.582;2023-12-04T02:15:12;8.20;;;2.60;;
69434;SDS011;56625;54.322;18.582;2023-12-04T02:17:43;6.80;;;2.00;;
69434;SDS011;56625;54.322;18.582;2023-12-04T02:20:13;8.80;;;2.20;;
69434;SDS011;56625;54.322;18.582;2023-12-04T02:22:42;5.80;;;1.50;;
69434;SDS011;56625;54.322;18.582;2023-12-04T02:25:11;8.40;;;2.40;;
69434;SDS011;56625;54.322;18.582;2023-12-04T02:28:01;8.50;;;2.40;;
69434;SDS011;56625;54.322;18.582;2023-12-04T02:30:41;7.20;;;2.00;;
69434;SDS011;56625;54.322;18.582;2023-12-04T02:33:13;7.50;;;2.10;;
69434;SDS011;56625;54.322;18.582;2023-12-04T02:35:42;7.60;;;1.70;;
69434;SDS011;56625;54.322;18.582;2023-12-04T02:38:11;7.90;;;2.40;;
69434;SDS011;56625;54.322;18.582;2023-12-04T02:40:41;7.60;;;2.50;;
69434;SDS011;56625;54.322;18.582;2023-12-04T02:43:09;8.90;;;2.50;;
69434;SDS011;56625;54.322;18.582;2023-12-04T02:45:37;7.00;;;2.10;;
69434;SDS011;56625;54.322;18.582;2023-12-04T02:48:06;6.60;;;1.70;;
69434;SDS011;56625;54.322;18.582;2023-12-04T02:50:35;8.30;;;2.30;;
69434;SDS011;56625;54.322;18.582;2023-12-04T02:53:03;7.30;;;1.90;;
69434;SDS011;56625;54.322;18.582;2023-12-04T02:55:31;6.90;;;1.70;;
69434;SDS011;56625;54.322;18.582;2023-12-04T02:57:59;7.30;;;1.60;;
69434;SDS011;56625;54.322;18.582;2023-12-04T03:00:27;7.10;;;1.60;;
69434;SDS011;56625;54.322;18.582;2023-12-04T03:02:56;6.70;;;1.60;;
69434;SDS011;56625;54.322;18.582;2023-12-04T03:05:24;8.80;;;2.30;;
69434;SDS011;56625;54.322;18.582;2023-12-04T03:07:52;7.30;;;2.20;;
69434;SDS011;56625;54.322;18.582;2023-12-04T03:10:20;7.60;;;1.90;;
69434;SDS011;56625;54.322;18.582;2023-12-04T03:12:48;3.20;;;0.70;;
69434;SDS011;56625;54.322;18.582;2023-12-04T03:15:16;7.20;;;1.80;;
69434;SDS011;56625;54.322;18.582;2023-12-04T03:17:45;4.70;;;1.10;;
69434;SDS011;56625;54.322;18.582;2023-12-04T03:20:13;6.70;;;1.70;;
69434;SDS011;56625;54.322;18.582;2023-12-04T03:22:41;6.60;;;1.90;;
69434;SDS011;56625;54.322;18.582;2023-12-04T03:25:09;3.90;;;0.90;;
69434;SDS011;56625;54.322;18.582;2023-12-04T03:27:38;7.30;;;1.70;;
69434;SDS011;56625;54.322;18.582;2023-12-04T03:30:06;6.20;;;1.30;;
69434;SDS011;56625;54.322;18.582;2023-12-04T03:32:35;6.10;;;1.30;;
69434;SDS011;56625;54.322;18.582;2023-12-04T03:35:03;5.60;;;1.10;;
69434;SDS011;56625;54.322;18.582;2023-12-04T03:37:31;8.10;;;1.80;;
69434;SDS011;56625;54.322;18.582;2023-12-04T03:39:59;7.20;;;1.80;;
69434;SDS011;56625;54.322;18.582;2023-12-04T03:42:28;7.20;;;1.60;;
69434;SDS011;56625;54.322;18.582;2023-12-04T03:44:56;3.80;;;0.80;;
69434;SDS011;56625;54.322;18.582;2023-12-04T03:47:24;7.10;;;1.40;;
69434;SDS011;56625;54.322;18.582;2023-12-04T03:49:53;4.80;;;1.10;;
69434;SDS011;56625;54.322;18.582;2023-12-04T03:52:21;6.20;;;1.40;;
69434;SDS011;56625;54.322;18.582;2023-12-04T03:54:49;6.10;;;1.40;;
69434;SDS011;56625;54.322;18.582;2023-12-04T03:57:17;4.40;;;0.90;;
69434;SDS011;56625;54.322;18.582;2023-12-04T03:59:45;7.30;;;1.50;;
69434;SDS011;56625;54.322;18.582;2023-12-04T04:02:13;5.30;;;1.10;;
69434;SDS011;56625;54.322;18.582;2023-12-04T04:04:41;4.90;;;1.10;;
69434;SDS011;56625;54.322;18.582;2023-12-04T04:07:09;6.90;;;1.50;;
69434;SDS011;56625;54.322;18.582;2023-12-04T04:09:37;5.70;;;1.50;;
69434;SDS011;56625;54.322;18.582;2023-12-04T04:12:06;3.80;;;1.00;;
69434;SDS011;56625;54.322;18.582;2023-12-04T04:14:34;6.40;;;1.80;;
69434;SDS011;56625;54.322;18.582;2023-12-04T04:17:02;5.60;;;1.30;;
69434;SDS011;56625;54.322;18.582;2023-12-04T04:19:31;7.00;;;2.10;;
69434;SDS011;56625;54.322;18.582;2023-12-04T04:21:59;4.10;;;0.90;;
69434;SDS011;56625;54.322;18.582;2023-12-04T04:24:28;7.20;;;1.60;;
69434;SDS011;56625;54.322;18.582;2023-12-04T04:26:57;4.20;;;1.00;;
69434;SDS011;56625;54.322;18.582;2023-12-04T04:29:25;5.10;;;1.50;;
69434;SDS011;56625;54.322;18.582;2023-12-04T04:31:53;6.80;;;1.30;;
69434;SDS011;56625;54.322;18.582;2023-12-04T04:34:21;8.00;;;2.10;;
69434;SDS011;56625;54.322;18.582;2023-12-04T04:36:49;4.60;;;1.30;;
69434;SDS011;56625;54.322;18.582;2023-12-04T04:39:18;7.20;;;2.00;;
69434;SDS011;56625;54.322;18.582;2023-12-04T04:41:46;4.40;;;1.00;;
69434;SDS011;56625;54.322;18.582;2023-12-04T04:44:14;4.50;;;1.70;;
69434;SDS011;56625;54.322;18.582;2023-12-04T04:46:42;7.70;;;2.00;;
69434;SDS011;56625;54.322;18.582;2023-12-04T04:49:10;4.00;;;1.20;;
69434;SDS011;56625;54.322;18.582;2023-12-04T04:51:38;6.20;;;1.70;;
69434;SDS011;56625;54.322;18.582;2023-12-04T04:54:06;9.10;;;2.10;;
69434;SDS011;56625;54.322;18.582;2023-12-04T04:56:35;8.00;;;2.10;;
69434;SDS011;56625;54.322;18.582;2023-12-04T04:59:03;7.90;;;2.20;;
69434;SDS011;56625;54.322;18.582;2023-12-04T05:01:31;10.00;;;2.80;;
69434;SDS011;56625;54.322;18.582;2023-12-04T05:03:59;8.50;;;2.60;;
69434;SDS011;56625;54.322;18.582;2023-12-04T05:06:28;10.20;;;2.50;;
69434;SDS011;56625;54.322;18.582;2023-12-04T05:08:57;7.00;;;2.10;;
69434;SDS011;56625;54.322;18.582;2023-12-04T05:11:25;8.90;;;2.70;;
69434;SDS011;56625;54.322;18.582;2023-12-04T05:13:54;7.10;;;2.00;;
69434;SDS011;56625;54.322;18.582;2023-12-04T05:16:22;9.80;;;2.40;;
69434;SDS011;56625;54.322;18.582;2023-12-04T05:18:50;6.10;;;1.40;;
69434;SDS011;56625;54.322;18.582;2023-12-04T05:21:18;6.80;;;2.10;;
69434;SDS011;56625;54.322;18.582;2023-12-04T05:23:46;8.30;;;2.50;;
69434;SDS011;56625;54.322;18.582;2023-12-04T05:26:15;7.50;;;2.50;;
69434;SDS011;56625;54.322;18.582;2023-12-04T05:28:44;10.10;;;2.90;;
69434;SDS011;56625;54.322;18.582;2023-12-04T05:31:12;8.00;;;2.60;;
69434;SDS011;56625;54.322;18.582;2023-12-04T05:33:40;7.70;;;2.30;;
69434;SDS011;56625;54.322;18.582;2023-12-04T05:36:12;8.70;;;2.70;;
69434;SDS011;56625;54.322;18.582;2023-12-04T05:38:40;8.60;;;3.00;;
69434;SDS011;56625;54.322;18.582;2023-12-04T05:41:08;12.00;;;3.70;;
69434;SDS011;56625;54.322;18.582;2023-12-04T05:43:36;7.60;;;1.90;;
69434;SDS011;56625;54.322;18.582;2023-12-04T05:46:04;7.40;;;1.80;;
69434;SDS011;56625;54.322;18.582;2023-12-04T05:48:33;5.30;;;1.40;;
69434;SDS011;56625;54.322;18.582;2023-12-04T05:51:01;10.70;;;3.10;;
69434;SDS011;56625;54.322;18.582;2023-12-04T05:53:29;8.90;;;2.30;;
69434;SDS011;56625;54.322;18.582;2023-12-04T05:55:57;8.90;;;1.50;;
69434;SDS011;56625;54.322;18.582;2023-12-04T05:58:25;8.00;;;1.80;;
69434;SDS011;56625;54.322;18.582;2023-12-04T06:00:53;8.10;;;1.80;;
69434;SDS011;56625;54.322;18.582;2023-12-04T06:03:21;7.80;;;2.70;;
69434;SDS011;56625;54.322;18.582;2023-12-04T06:05:49;11.00;;;3.40;;
69434;SDS011;56625;54.322;18.582;2023-12-04T06:08:21;5.20;;;1.50;;
69434;SDS011;56625;54.322;18.582;2023-12-04T06:10:49;11.20;;;3.20;;
69434;SDS011;56625;54.322;18.582;2023-12-04T06:13:17;8.50;;;2.60;;
69434;SDS011;56625;54.322;18.582;2023-12-04T06:15:46;9.00;;;3.00;;
69434;SDS011;56625;54.322;18.582;2023-12-04T06:18:14;10.00;;;2.90;;
69434;SDS011;56625;54.322;18.582;2023-12-04T06:20:42;10.40;;;3.30;;
69434;SDS011;56625;54.322;18.582;2023-12-04T06:23:10;10.50;;;3.20;;
69434;SDS011;56625;54.322;18.582;2023-12-04T06:25:39;9.60;;;2.90;;
69434;SDS011;56625;54.322;18.582;2023-12-04T06:28:07;7.70;;;2.50;;
69434;SDS011;56625;54.322;18.582;2023-12-04T06:30:36;10.20;;;3.20;;
69434;SDS011;56625;54.322;18.582;2023-12-04T06:33:05;9.40;;;3.10;;
69434;SDS011;56625;54.322;18.582;2023-12-04T06:35:34;7.80;;;2.20;;
69434;SDS011;56625;54.322;18.582;2023-12-04T06:38:07;6.50;;;1.40;;
69434;SDS011;56625;54.322;18.582;2023-12-04T06:40:36;16.20;;;6.20;;
69434;SDS011;56625;54.322;18.582;2023-12-04T06:43:04;12.90;;;4.10;;
69434;SDS011;56625;54.322;18.582;2023-12-04T06:45:33;8.10;;;2.90;;
69434;SDS011;56625;54.322;18.582;2023-12-04T06:48:03;8.30;;;2.60;;
69434;SDS011;56625;54.322;18.582;2023-12-04T06:50:31;9.00;;;2.70;;
69434;SDS011;56625;54.322;18.582;2023-12-04T06:52:59;9.80;;;3.30;;
69434;SDS011;56625;54.322;18.582;2023-12-04T06:55:27;9.30;;;3.60;;
69434;SDS011;56625;54.322;18.582;2023-12-04T06:57:55;10.30;;;3.40;;
69434;SDS011;56625;54.322;18.582;2023-12-04T07:00:23;9.20;;;2.90;;
69434;SDS011;56625;54.322;18.582;2023-12-04T07:02:52;9.90;;;2.70;;
69434;SDS011;56625;54.322;18.582;2023-12-04T07:05:20;8.10;;;2.80;;
69434;SDS011;56625;54.322;18.582;2023-12-04T07:07:49;12.90;;;4.30;;
69434;SDS011;56625;54.322;18.582;2023-12-04T07:10:17;9.40;;;3.10;;
69434;SDS011;56625;54.322;18.582;2023-12-04T07:12:46;11.70;;;3.80;;
69434;SDS011;56625;54.322;18.582;2023-12-04T07:15:14;10.70;;;4.10;;
69434;SDS011;56625;54.322;18.582;2023-12-04T07:17:42;8.60;;;2.30;;
69434;SDS011;56625;54.322;18.582;2023-12-04T07:20:10;7.90;;;2.40;;
69434;SDS011;56625;54.322;18.582;2023-12-04T07:22:39;7.70;;;2.50;;
69434;SDS011;56625;54.322;18.582;2023-12-04T07:25:08;10.90;;;3.90;;
69434;SDS011;56625;54.322;18.582;2023-12-04T07:27:36;14.20;;;7.30;;
69434;SDS011;56625;54.322;18.582;2023-12-04T07:30:05;11.60;;;4.70;;
69434;SDS011;56625;54.322;18.582;2023-12-04T07:32:35;12.50;;;4.00;;
69434;SDS011;56625;54.322;18.582;2023-12-04T07:35:04;15.80;;;7.20;;
69434;SDS011;56625;54.322;18.582;2023-12-04T07:37:33;22.50;;;9.90;;
69434;SDS011;56625;54.322;18.582;2023-12-04T07:40:01;20.40;;;9.50;;
69434;SDS011;56625;54.322;18.582;2023-12-04T07:42:29;17.10;;;7.70;;
69434;SDS011;56625;54.322;18.582;2023-12-04T07:44:57;18.00;;;7.30;;
69434;SDS011;56625;54.322;18.582;2023-12-04T07:47:25;17.40;;;8.00;;
69434;SDS011;56625;54.322;18.582;2023-12-04T07:49:53;19.60;;;8.60;;
69434;SDS011;56625;54.322;18.582;2023-12-04T07:52:22;17.40;;;7.10;;
69434;SDS011;56625;54.322;18.582;2023-12-04T07:54:50;12.70;;;4.60;;
69434;SDS011;56625;54.322;18.582;2023-12-04T07:57:19;11.30;;;4.30;;
69434;SDS011;56625;54.322;18.582;2023-12-04T07:59:47;11.20;;;3.90;;
69434;SDS011;56625;54.322;18.582;2023-12-04T08:02:18;13.30;;;5.20;;
69434;SDS011;56625;54.322;18.582;2023-12-04T08:04:46;14.70;;;5.90;;
69434;SDS011;56625;54.322;18.582;2023-12-04T08:07:15;17.10;;;6.90;;
69434;SDS011;56625;54.322;18.582;2023-12-04T08:09:43;20.90;;;7.80;;
69434;SDS011;56625;54.322;18.582;2023-12-04T08:12:11;21.70;;;9.30;;
69434;SDS011;56625;54.322;18.582;2023-12-04T08:14:39;19.60;;;8.20;;
69434;SDS011;56625;54.322;18.582;2023-12-04T08:17:07;18.10;;;7.90;;
69434;SDS011;56625;54.322;18.582;2023-12-04T08:19:35;19.20;;;9.20;;
69434;SDS011;56625;54.322;18.582;2023-12-04T08:22:06;16.50;;;6.90;;
69434;SDS011;56625;54.322;18.582;2023-12-04T08:24:34;21.10;;;8.60;;
69434;SDS011;56625;54.322;18.582;2023-12-04T08:27:02;23.40;;;11.60;;
69434;SDS011;56625;54.322;18.582;2023-12-04T08:29:30;14.30;;;6.30;;
69434;SDS011;56625;54.322;18.582;2023-12-04T08:31:59;22.70;;;8.30;;
69434;SDS011;56625;54.322;18.582;2023-12-04T08:34:27;21.60;;;7.70;;
69434;SDS011;56625;54.322;18.582;2023-12-04T08:36:55;13.30;;;4.60;;
69434;SDS011;56625;54.322;18.582;2023-12-04T08:39:23;23.20;;;8.80;;
69434;SDS011;56625;54.322;18.582;2023-12-04T08:41:52;21.50;;;8.70;;
69434;SDS011;56625;54.322;18.582;2023-12-04T08:44:29;13.50;;;5.40;;
69434;SDS011;56625;54.322;18.582;2023-12-04T08:46:57;19.70;;;6.80;;
69434;SDS011;56625;54.322;18.582;2023-12-04T08:49:26;20.00;;;7.90;;
69434;SDS011;56625;54.322;18.582;2023-12-04T08:52:09;22.90;;;9.10;;
69434;SDS011;56625;54.322;18.582;2023-12-04T08:54:39;19.00;;;7.20;;
69434;SDS011;56625;54.322;18.582;2023-12-04T08:57:09;17.00;;;6.20;;
69434;SDS011;56625;54.322;18.582;2023-12-04T08:59:37;17.80;;;6.30;;
69434;SDS011;56625;54.322;18.582;2023-12-04T09:02:05;23.00;;;7.70;;
69434;SDS011;56625;54.322;18.582;2023-12-04T09:04:35;15.00;;;5.30;;
69434;SDS011;56625;54.322;18.582;2023-12-04T09:07:04;10.20;;;3.90;;
69434;SDS011;56625;54.322;18.582;2023-12-04T09:09:35;15.30;;;5.10;;
69434;SDS011;56625;54.322;18.582;2023-12-04T09:12:03;14.10;;;4.00;;
69434;SDS011;56625;54.322;18.582;2023-12-04T09:14:31;13.00;;;4.70;;
69434;SDS011;56625;54.322;18.582;2023-12-04T09:17:00;13.80;;;4.80;;
69434;SDS011;56625;54.322;18.582;2023-12-04T09:19:28;18.30;;;7.30;;
69434;SDS011;56625;54.322;18.582;2023-12-04T09:21:57;12.80;;;4.80;;
69434;SDS011;56625;54.322;18.582;2023-12-04T09:24:40;16.30;;;6.20;;
69434;SDS011;56625;54.322;18.582;2023-12-04T09:27:08;15.10;;;6.10;;
69434;SDS011;56625;54.322;18.582;2023-12-04T09:29:36;14.10;;;4.90;;
69434;SDS011;56625;54.322;18.582;2023-12-04T09:32:05;15.50;;;6.30;;
69434;SDS011;56625;54.322;18.582;2023-12-04T09:34:33;15.50;;;6.30;;
69434;SDS011;56625;54.322;18.582;2023-12-04T09:37:01;16.90;;;6.50;;
69434;SDS011;56625;54.322;18.582;2023-12-04T09:39:38;12.80;;;5.10;;
69434;SDS011;56625;54.322;18.582;2023-12-04T09:42:07;8.80;;;2.90;;
69434;SDS011;56625;54.322;18.582;2023-12-04T09:44:37;15.30;;;6.40;;
69434;SDS011;56625;54.322;18.582;2023-12-04T09:47:07;13.50;;;4.40;;
69434;SDS011;56625;54.322;18.582;2023-12-04T09:49:36;11.50;;;4.00;;
69434;SDS011;56625;54.322;18.582;2023-12-04T09:52:06;14.80;;;3.90;;
69434;SDS011;56625;54.322;18.582;2023-12-04T09:54:35;16.70;;;6.80;;
69434;SDS011;56625;54.322;18.582;2023-12-04T09:57:05;22.00;;;8.30;;
69434;SDS011;56625;54.322;18.582;2023-12-04T09:59:34;18.10;;;7.00;;
69434;SDS011;56625;54.322;18.582;2023-12-04T10:02:04;12.70;;;4.50;;
69434;SDS011;56625;54.322;18.582;2023-12-04T10:04:34;13.60;;;4.90;;
69434;SDS011;56625;54.322;18.582;2023-12-04T10:07:03;10.80;;;3.70;;
69434;SDS011;56625;54.322;18.582;2023-12-04T10:09:32;11.80;;;4.80;;
69434;SDS011;56625;54.322;18.582;2023-12-04T10:12:00;11.80;;;4.00;;
69434;SDS011;56625;54.322;18.582;2023-12-04T10:14:29;13.40;;;4.60;;
69434;SDS011;56625;54.322;18.582;2023-12-04T10:16:57;9.20;;;3.30;;
69434;SDS011;56625;54.322;18.582;2023-12-04T10:19:28;16.60;;;6.50;;
69434;SDS011;56625;54.322;18.582;2023-12-04T10:21:59;9.70;;;3.60;;
69434;SDS011;56625;54.322;18.582;2023-12-04T10:24:29;9.50;;;3.60;;
69434;SDS011;56625;54.322;18.582;2023-12-04T10:27:08;15.40;;;5.60;;
69434;SDS011;56625;54.322;18.582;2023-12-04T10:29:43;14.60;;;5.50;;
69434;SDS011;56625;54.322;18.582;2023-12-04T10:32:19;15.80;;;5.50;;
69434;SDS011;56625;54.322;18.582;2023-12-04T10:34:51;10.70;;;4.00;;
69434;SDS011;56625;54.322;18.582;2023-12-04T10:37:19;11.30;;;3.10;;
69434;SDS011;56625;54.322;18.582;2023-12-04T10:39:49;11.10;;;4.50;;
69434;SDS011;56625;54.322;18.582;2023-12-04T10:42:29;16.30;;;5.80;;
69434;SDS011;56625;54.322;18.582;2023-12-04T10:45:00;9.80;;;3.50;;
69434;SDS011;56625;54.322;18.582;2023-12-04T10:47:29;13.60;;;4.90;;
69434;SDS011;56625;54.322;18.582;2023-12-04T10:50:02;13.80;;;4.50;;
69434;SDS011;56625;54.322;18.582;2023-12-04T10:52:31;17.20;;;6.00;;
69434;SDS011;56625;54.322;18.582;2023-12-04T10:55:00;16.20;;;6.70;;
69434;SDS011;56625;54.322;18.582;2023-12-04T10:57:36;16.20;;;5.80;;
69434;SDS011;56625;54.322;18.582;2023-12-04T11:00:08;29.50;;;9.50;;
69434;SDS011;56625;54.322;18.582;2023-12-04T11:02:43;20.50;;;7.40;;
69434;SDS011;56625;54.322;18.582;2023-12-04T11:05:16;13.30;;;5.70;;
69434;SDS011;56625;54.322;18.582;2023-12-04T11:08:01;16.00;;;7.30;;
69434;SDS011;56625;54.322;18.582;2023-12-04T11:11:05;13.20;;;4.90;;
69434;SDS011;56625;54.322;18.582;2023-12-04T11:13:56;11.20;;;3.70;;
69434;SDS011;56625;54.322;18.582;2023-12-04T11:16:46;10.30;;;3.50;;
69434;SDS011;56625;54.322;18.582;2023-12-04T11:19:40;9.70;;;3.10;;
69434;SDS011;56625;54.322;18.582;2023-12-04T11:22:18;13.20;;;4.30;;
69434;SDS011;56625;54.322;18.582;2023-12-04T11:24:48;14.00;;;4.70;;
69434;SDS011;56625;54.322;18.582;2023-12-04T11:27:17;12.80;;;4.20;;
69434;SDS011;56625;54.322;18.582;2023-12-04T11:29:46;12.60;;;4.40;;
69434;SDS011;56625;54.322;18.582;2023-12-04T11:32:16;13.20;;;4.30;;
69434;SDS011;56625;54.322;18.582;2023-12-04T11:34:53;9.20;;;3.30;;
69434;SDS011;56625;54.322;18.582;2023-12-04T11:37:23;13.00;;;4.70;;
69434;SDS011;56625;54.322;18.582;2023-12-04T11:39:53;11.60;;;4.30;;
69434;SDS011;56625;54.322;18.582;2023-12-04T11:42:25;16.90;;;6.00;;
69434;SDS011;56625;54.322;18.582;2023-12-04T11:44:59;13.30;;;4.30;;
69434;SDS011;56625;54.322;18.582;2023-12-04T11:47:30;10.60;;;4.20;;
69434;SDS011;56625;54.322;18.582;2023-12-04T11:50:00;16.50;;;4.80;;
69434;SDS011;56625;54.322;18.582;2023-12-04T11:52:33;14.50;;;4.80;;
69434;SDS011;56625;54.322;18.582;2023-12-04T11:55:05;16.90;;;5.60;;
69434;SDS011;56625;54.322;18.582;2023-12-04T11:57:36;21.50;;;6.10;;
69434;SDS011;56625;54.322;18.582;2023-12-04T12:03:07;21.60;;;6.10;;
69434;SDS011;56625;54.322;18.582;2023-12-04T12:05:50;17.30;;;5.90;;
69434;SDS011;56625;54.322;18.582;2023-12-04T12:08:22;16.70;;;4.90;;
69434;SDS011;56625;54.322;18.582;2023-12-04T12:10:52;19.10;;;6.10;;
69434;SDS011;56625;54.322;18.582;2023-12-04T12:13:21;17.10;;;5.10;;
69434;SDS011;56625;54.322;18.582;2023-12-04T12:15:51;12.00;;;5.00;;
69434;SDS011;56625;54.322;18.582;2023-12-04T12:18:21;13.80;;;5.00;;
69434;SDS011;56625;54.322;18.582;2023-12-04T12:20:54;14.20;;;4.90;;
69434;SDS011;56625;54.322;18.582;2023-12-04T12:23:26;15.70;;;5.70;;
69434;SDS011;56625;54.322;18.582;2023-12-04T12:25:54;14.40;;;4.40;;
69434;SDS011;56625;54.322;18.582;2023-12-04T12:28:23;14.20;;;5.60;;
69434;SDS011;56625;54.322;18.582;2023-12-04T12:30:51;21.80;;;6.50;;
69434;SDS011;56625;54.322;18.582;2023-12-04T12:33:21;16.40;;;6.10;;
69434;SDS011;56625;54.322;18.582;2023-12-04T12:35:51;12.00;;;4.40;;
69434;SDS011;56625;54.322;18.582;2023-12-04T12:38:30;16.60;;;6.00;;
69434;SDS011;56625;54.322;18.582;2023-12-04T12:41:06;17.10;;;5.90;;
69434;SDS011;56625;54.322;18.582;2023-12-04T12:43:37;12.90;;;4.90;;
69434;SDS011;56625;54.322;18.582;2023-12-04T12:46:05;17.50;;;6.40;;
69434;SDS011;56625;54.322;18.582;2023-12-04T12:48:35;14.30;;;4.90;;
69434;SDS011;56625;54.322;18.582;2023-12-04T12:51:03;15.00;;;5.20;;
69434;SDS011;56625;54.322;18.582;2023-12-04T12:53:32;13.70;;;4.90;;
69434;SDS011;56625;54.322;18.582;2023-12-04T12:56:01;13.20;;;4.70;;
69434;SDS011;56625;54.322;18.582;2023-12-04T12:58:33;13.60;;;4.50;;
69434;SDS011;56625;54.322;18.582;2023-12-04T13:01:02;21.00;;;7.80;;
69434;SDS011;56625;54.322;18.582;2023-12-04T13:03:31;14.70;;;4.60;;
69434;SDS011;56625;54.322;18.582;2023-12-04T13:06:00;15.00;;;6.00;;
69434;SDS011;56625;54.322;18.582;2023-12-04T13:08:28;14.40;;;4.80;;
69434;SDS011;56625;54.322;18.582;2023-12-04T13:10:57;13.00;;;5.10;;
69434;SDS011;56625;54.322;18.582;2023-12-04T13:13:25;15.90;;;5.40;;
69434;SDS011;56625;54.322;18.582;2023-12-04T13:15:55;11.00;;;3.90;;
69434;SDS011;56625;54.322;18.582;2023-12-04T13:18:24;13.60;;;5.50;;
69434;SDS011;56625;54.322;18.582;2023-12-04T13:20:52;13.30;;;4.90;;
69434;SDS011;56625;54.322;18.582;2023-12-04T13:23:20;18.20;;;6.50;;
69434;SDS011;56625;54.322;18.582;2023-12-04T13:25:52;18.20;;;7.00;;
69434;SDS011;56625;54.322;18.582;2023-12-04T13:28:23;14.50;;;4.90;;
69434;SDS011;56625;54.322;18.582;2023-12-04T13:31:04;17.00;;;6.40;;
69434;SDS011;56625;54.322;18.582;2023-12-04T13:33:32;16.80;;;5.70;;
69434;SDS011;56625;54.322;18.582;2023-12-04T13:36:01;19.00;;;6.10;;
69434;SDS011;56625;54.322;18.582;2023-12-04T13:38:29;18.90;;;6.90;;
69434;SDS011;56625;54.322;18.582;2023-12-04T13:41:04;14.10;;;5.00;;
69434;SDS011;56625;54.322;18.582;2023-12-04T13:43:51;9.80;;;3.40;;
69434;SDS011;56625;54.322;18.582;2023-12-04T13:46:20;12.10;;;4.20;;
69434;SDS011;56625;54.322;18.582;2023-12-04T13:48:48;14.20;;;5.70;;
69434;SDS011;56625;54.322;18.582;2023-12-04T13:51:16;13.30;;;4.40;;
69434;SDS011;56625;54.322;18.582;2023-12-04T13:53:44;13.90;;;5.80;;
69434;SDS011;56625;54.322;18.582;2023-12-04T13:56:16;15.10;;;5.80;;
69434;SDS011;56625;54.322;18.582;2023-12-04T13:58:51;21.10;;;6.50;;
69434;SDS011;56625;54.322;18.582;2023-12-04T14:01:27;15.70;;;5.60;;
69434;SDS011;56625;54.322;18.582;2023-12-04T14:03:57;13.50;;;3.80;;
69434;SDS011;56625;54.322;18.582;2023-12-04T14:06:31;16.80;;;6.00;;
69434;SDS011;56625;54.322;18.582;2023-12-04T14:09:01;18.10;;;6.10;;
69434;SDS011;56625;54.322;18.582;2023-12-04T14:11:32;16.80;;;5.00;;
69434;SDS011;56625;54.322;18.582;2023-12-04T14:14:00;15.20;;;5.90;;
69434;SDS011;56625;54.322;18.582;2023-12-04T14:16:28;17.30;;;6.40;;
69434;SDS011;56625;54.322;18.582;2023-12-04T14:18:57;19.70;;;7.20;;
69434;SDS011;56625;54.322;18.582;2023-12-04T14:21:27;20.20;;;6.20;;
69434;SDS011;56625;54.322;18.582;2023-12-04T14:23:56;21.20;;;7.30;;
69434;SDS011;56625;54.322;18.582;2023-12-04T14:26:24;20.00;;;7.10;;
69434;SDS011;56625;54.322;18.582;2023-12-04T14:28:52;20.50;;;7.30;;
69434;SDS011;56625;54.322;18.582;2023-12-04T14:31:21;18.90;;;6.20;;
69434;SDS011;56625;54.322;18.582;2023-12-04T14:33:49;16.40;;;6.20;;
69434;SDS011;56625;54.322;18.582;2023-12-04T14:36:17;15.80;;;6.20;;
69434;SDS011;56625;54.322;18.582;2023-12-04T14:38:46;22.20;;;7.70;;
69434;SDS011;56625;54.322;18.582;2023-12-04T14:41:14;22.80;;;8.40;;
69434;SDS011;56625;54.322;18.582;2023-12-04T14:43:43;23.10;;;7.60;;
69434;SDS011;56625;54.322;18.582;2023-12-04T14:46:11;25.20;;;7.90;;